Time;durP1;ratioP1;P1;durP2;ratioP2;P2;SDS_P1;SDS_P2;PMS_P1;PMS_P2;Temp;Humidity;BMP_temperature;BMP_pressure;BME280_temperature;BME280_humidity;BME280_pressure;Samples;Min_cycle;Max_cycle;Signal;HPM_P1;HPM_P2
2022/09/04 00:01:43;;;;;;;;;;;14.30;99.90;;;;;;5027522;28;20438;-85
2022/09/04 00:04:09;;;;;;;;;;;14.20;99.90;;;;;;5015369;28;19920;-85
2022/09/04 00:06:48;;;;;;;;;;;14.20;99.90;;;;;;5009994;28;19913;-85
2022/09/04 00:09:17;;;;;;;;;;;14.10;99.90;;;;;;5014221;28;19913;-86
2022/09/04 00:11:43;;;;;;;;;;;14.20;99.90;;;;;;5038522;28;19971;-85
2022/09/04 00:14:13;;;;;;;;;;;14.10;99.90;;;;;;5030222;28;19959;-86
2022/09/04 00:16:42;;;;;;;;;;;14.10;99.90;;;;;;5026693;28;19956;-85
2022/09/04 00:19:17;;;;;;;;;;;14.00;99.90;;;;;;5010400;28;19913;-86
2022/09/04 00:21:47;;;;;;;;;;;14.00;99.90;;;;;;5006912;28;19921;-86
2022/09/04 00:24:14;;;;;;;;;;;14.00;99.90;;;;;;5036179;28;19921;-85
2022/09/04 00:27:00;;;;;;;;;;;14.00;99.90;;;;;;5006174;28;19917;-85
2022/09/04 00:29:26;;;;;;;;;;;14.00;99.90;;;;;;5013643;28;19913;-85
2022/09/04 00:31:58;;;;;;;;;;;14.00;99.90;;;;;;5029325;28;19920;-85
2022/09/04 00:34:35;;;;;;;;;;;13.90;99.90;;;;;;5029349;28;19924;-85
2022/09/04 00:37:03;;;;;;;;;;;13.90;99.90;;;;;;5025979;28;19913;-85
2022/09/04 00:39:34;;;;;;;;;;;13.90;99.90;;;;;;5044301;28;19913;-86
2022/09/04 00:42:12;;;;;;;;;;;13.80;99.90;;;;;;5045543;28;19912;-86
2022/09/04 00:44:57;;;;;;;;;;;13.90;99.90;;;;;;5015216;28;20297;-86
2022/09/04 00:47:29;;;;;;;;;;;13.80;99.90;;;;;;5018064;28;19924;-85
2022/09/04 00:50:00;;;;;;;;;;;13.80;99.90;;;;;;5023223;28;19917;-85
2022/09/04 00:52:35;;;;;;;;;;;13.80;99.90;;;;;;5012560;28;20622;-86
2022/09/04 00:55:04;;;;;;;;;;;13.80;99.90;;;;;;5024970;28;19920;-86
2022/09/04 00:57:33;;;;;;;;;;;13.80;99.90;;;;;;5028076;28;20393;-85
2022/09/04 01:00:06;;;;;;;;;;;13.80;99.90;;;;;;5024199;28;19952;-85
2022/09/04 01:02:45;;;;;;;;;;;13.80;99.90;;;;;;5019333;28;20453;-85
2022/09/04 01:05:31;;;;;;;;;;;13.80;99.90;;;;;;5019031;28;20348;-85
2022/09/04 01:08:19;;;;;;;;;;;13.80;99.90;;;;;;5015201;28;20012;-85
2022/09/04 01:10:49;;;;;;;;;;;13.80;99.90;;;;;;5015459;28;19921;-85
2022/09/04 01:13:35;;;;;;;;;;;13.80;99.90;;;;;;5029946;28;20527;-85
2022/09/04 01:16:09;;;;;;;;;;;13.80;99.90;;;;;;5040986;28;20003;-85
2022/09/04 01:18:44;;;;;;;;;;;13.80;99.90;;;;;;5028965;28;19920;-85
2022/09/04 01:21:19;;;;;;;;;;;13.80;99.90;;;;;;5012346;28;19913;-86
2022/09/04 01:23:47;;;;;;;;;;;13.70;99.90;;;;;;5045883;28;19963;-86
2022/09/04 01:26:16;;;;;;;;;;;13.70;99.90;;;;;;5022178;28;19924;-85
2022/09/04 01:28:51;;;;;;;;;;;13.60;99.90;;;;;;5045763;28;19916;-85
2022/09/04 01:31:28;;;;;;;;;;;13.60;99.90;;;;;;5019377;28;19953;-85
2022/09/04 01:34:13;;;;;;;;;;;13.60;99.90;;;;;;5016450;28;20071;-86
2022/09/04 01:36:48;;;;;;;;;;;13.60;99.90;;;;;;5003927;28;20737;-85
2022/09/04 01:39:16;;;;;;;;;;;13.60;99.90;;;;;;5002175;28;20011;-86
2022/09/04 01:41:49;;;;;;;;;;;13.50;99.90;;;;;;5001968;28;20133;-86
2022/09/04 01:44:14;;;;;;;;;;;13.50;99.90;;;;;;5028280;28;19986;-85
2022/09/04 01:46:40;;;;;;;;;;;13.50;99.90;;;;;;5025446;28;20696;-86
2022/09/04 01:49:10;;;;;;;;;;;13.40;99.90;;;;;;5028515;28;19936;-86
2022/09/04 01:51:42;;;;;;;;;;;13.40;99.90;;;;;;5028230;28;19922;-85
2022/09/04 01:54:23;;;;;;;;;;;13.40;99.90;;;;;;5042707;28;19917;-85
2022/09/04 01:57:15;;;;;;;;;;;13.40;99.90;;;;;;5011403;28;19971;-85
2022/09/04 01:59:41;;;;;;;;;;;13.40;99.90;;;;;;5008038;28;19921;-85
2022/09/04 02:02:12;;;;;;;;;;;13.30;99.90;;;;;;5023658;28;19909;-85
2022/09/04 02:04:37;;;;;;;;;;;13.30;99.90;;;;;;5011578;28;19940;-85
2022/09/04 02:07:15;;;;;;;;;;;13.30;99.90;;;;;;5028048;28;20282;-84
2022/09/04 02:09:44;;;;;;;;;;;13.30;99.90;;;;;;5029511;28;19920;-84
2022/09/04 02:12:17;;;;;;;;;;;13.30;99.90;;;;;;5026644;28;19971;-84
2022/09/04 02:14:55;;;;;;;;;;;13.20;99.90;;;;;;5027843;28;20019;-85
2022/09/04 02:17:42;;;;;;;;;;;13.20;99.90;;;;;;5022841;28;19913;-85
2022/09/04 02:20:20;;;;;;;;;;;13.20;99.90;;;;;;5047977;28;20373;-84
2022/09/04 02:22:48;;;;;;;;;;;13.10;99.90;;;;;;5027760;28;19913;-85
2022/09/04 02:25:29;;;;;;;;;;;13.10;99.90;;;;;;5013931;28;19913;-85
2022/09/04 02:28:03;;;;;;;;;;;13.10;99.90;;;;;;4993662;28;19968;-85
2022/09/04 02:30:32;;;;;;;;;;;13.10;99.90;;;;;;5011624;28;19921;-85
2022/09/04 02:33:01;;;;;;;;;;;13.10;99.90;;;;;;5017681;28;20400;-85
2022/09/04 02:35:36;;;;;;;;;;;13.10;99.90;;;;;;5020416;28;20599;-85
2022/09/04 02:38:05;;;;;;;;;;;13.10;99.90;;;;;;5038986;28;19978;-86
2022/09/04 02:40:36;;;;;;;;;;;13.10;99.90;;;;;;5011672;28;19909;-86
2022/09/04 02:43:10;;;;;;;;;;;13.10;99.90;;;;;;5011747;28;19917;-85
2022/09/04 02:45:40;;;;;;;;;;;13.10;99.90;;;;;;5027452;28;19986;-85
2022/09/04 02:48:25;;;;;;;;;;;13.10;99.90;;;;;;5028434;28;19913;-85
2022/09/04 02:51:12;;;;;;;;;;;13.10;99.90;;;;;;5040770;28;19914;-85
2022/09/04 02:54:01;;;;;;;;;;;13.00;99.90;;;;;;5028184;28;19924;-84
2022/09/04 02:56:36;;;;;;;;;;;13.00;99.90;;;;;;5028521;28;19920;-85
2022/09/04 02:59:05;;;;;;;;;;;13.00;99.90;;;;;;5015655;28;19920;-85
2022/09/04 03:01:50;;;;;;;;;;;12.90;99.90;;;;;;5047111;28;19971;-84
2022/09/04 03:04:24;;;;;;;;;;;12.90;99.90;;;;;;5031316;28;20513;-84
2022/09/04 03:06:55;;;;;;;;;;;12.90;99.90;;;;;;5012081;28;19914;-85
2022/09/04 03:09:32;;;;;;;;;;;12.90;99.90;;;;;;5012340;28;19944;-85
2022/09/04 03:12:02;;;;;;;;;;;12.80;99.90;;;;;;5038451;28;20294;-84
2022/09/04 03:14:33;;;;;;;;;;;12.80;99.90;;;;;;5006023;28;20309;-84
2022/09/04 03:17:01;;;;;;;;;;;12.80;99.90;;;;;;5036531;28;20016;-84
2022/09/04 03:19:36;;;;;;;;;;;12.90;99.90;;;;;;5031795;28;19910;-85
2022/09/04 03:22:17;;;;;;;;;;;12.80;99.90;;;;;;5035861;28;19913;-85
2022/09/04 03:25:02;;;;;;;;;;;12.80;99.90;;;;;;5043603;28;19960;-85
2022/09/04 03:27:30;;;;;;;;;;;12.90;99.90;;;;;;5015857;28;19917;-85
2022/09/04 03:30:05;;;;;;;;;;;12.90;99.90;;;;;;5018152;28;19913;-85
2022/09/04 03:32:47;;;;;;;;;;;12.90;99.90;;;;;;5013920;28;20312;-85
2022/09/04 03:35:18;;;;;;;;;;;12.90;99.90;;;;;;5014537;28;20121;-85
2022/09/04 03:37:53;;;;;;;;;;;12.90;99.90;;;;;;5039659;28;19913;-84
2022/09/04 03:40:25;;;;;;;;;;;13.00;99.90;;;;;;5019157;28;19912;-84
2022/09/04 03:43:03;;;;;;;;;;;13.00;99.90;;;;;;5015045;28;19919;-84
2022/09/04 03:45:44;;;;;;;;;;;13.00;99.90;;;;;;5013849;28;20071;-85
2022/09/04 03:48:16;;;;;;;;;;;13.10;99.90;;;;;;5014782;28;19922;-84
2022/09/04 03:51:00;;;;;;;;;;;13.10;99.90;;;;;;5030974;28;20412;-84
2022/09/04 03:53:36;;;;;;;;;;;13.10;99.90;;;;;;5024073;28;19921;-84
2022/09/04 03:56:11;;;;;;;;;;;13.10;99.90;;;;;;5030274;28;19917;-84
2022/09/04 03:58:40;;;;;;;;;;;13.00;99.90;;;;;;5019595;28;19967;-84
2022/09/04 04:01:12;;;;;;;;;;;13.00;99.90;;;;;;5021367;28;19920;-84
2022/09/04 04:03:47;;;;;;;;;;;13.10;99.90;;;;;;5001755;28;19913;-85
2022/09/04 04:06:22;;;;;;;;;;;13.00;99.90;;;;;;5019081;28;19960;-84
2022/09/04 04:08:49;;;;;;;;;;;13.10;99.90;;;;;;5003790;28;20409;-84
2022/09/04 04:11:30;;;;;;;;;;;13.00;99.90;;;;;;5027376;28;19910;-85
2022/09/04 04:14:15;;;;;;;;;;;13.00;99.90;;;;;;5029838;28;19975;-84
2022/09/04 04:16:53;;;;;;;;;;;13.00;99.90;;;;;;5017419;28;19973;-85
2022/09/04 04:19:24;;;;;;;;;;;13.00;99.90;;;;;;4994407;28;19913;-85
2022/09/04 04:22:09;;;;;;;;;;;13.00;99.90;;;;;;5034847;28;19959;-85
2022/09/04 04:24:44;;;;;;;;;;;13.00;99.90;;;;;;5009426;28;19921;-85
2022/09/04 04:27:28;;;;;;;;;;;13.00;99.90;;;;;;5029981;28;19913;-86
2022/09/04 04:30:16;;;;;;;;;;;13.00;99.90;;;;;;5030202;28;19917;-85
2022/09/04 04:32:51;;;;;;;;;;;13.10;99.90;;;;;;5035088;28;20445;-85
2022/09/04 04:35:26;;;;;;;;;;;13.00;99.90;;;;;;5029974;28;19931;-84
2022/09/04 04:37:58;;;;;;;;;;;13.10;99.90;;;;;;5026031;28;20008;-84
2022/09/04 04:40:32;;;;;;;;;;;13.10;99.90;;;;;;5028597;28;19917;-83
2022/09/04 04:43:04;;;;;;;;;;;13.10;99.90;;;;;;5029415;28;20011;-84
2022/09/04 04:45:51;;;;;;;;;;;13.10;99.90;;;;;;5012525;28;20524;-84
2022/09/04 04:48:35;;;;;;;;;;;13.10;99.90;;;;;;5030211;28;19957;-85
2022/09/04 04:51:02;;;;;;;;;;;13.10;99.90;;;;;;5026636;28;19914;-82
2022/09/04 04:53:31;;;;;;;;;;;13.20;99.90;;;;;;5028724;28;19921;-83
2022/09/04 04:56:13;;;;;;;;;;;13.20;99.90;;;;;;5029085;28;19916;-83
2022/09/04 04:58:42;;;;;;;;;;;13.30;99.90;;;;;;5023666;28;20266;-83
2022/09/04 05:01:11;;;;;;;;;;;13.20;99.90;;;;;;5014655;28;19963;-83
2022/09/04 05:03:55;;;;;;;;;;;13.10;99.90;;;;;;5006285;28;19917;-83
2022/09/04 05:06:22;;;;;;;;;;;13.20;99.90;;;;;;5022758;28;19920;-83
2022/09/04 05:09:04;;;;;;;;;;;13.20;99.90;;;;;;5041887;28;20374;-83
2022/09/04 05:11:42;;;;;;;;;;;13.20;99.90;;;;;;5029735;28;20004;-83
2022/09/04 05:14:26;;;;;;;;;;;13.20;99.90;;;;;;5028871;28;19924;-83
2022/09/04 05:16:52;;;;;;;;;;;13.30;99.90;;;;;;5021414;28;20393;-83
2022/09/04 05:19:36;;;;;;;;;;;13.30;99.90;;;;;;5047778;28;19919;-82
2022/09/04 05:22:19;;;;;;;;;;;13.30;99.90;;;;;;5023961;28;20554;-83
2022/09/04 05:24:54;;;;;;;;;;;13.30;99.90;;;;;;5011151;28;19913;-83
2022/09/04 05:27:22;;;;;;;;;;;13.40;99.90;;;;;;5023610;28;20413;-83
2022/09/04 05:29:50;;;;;;;;;;;13.40;99.90;;;;;;4992710;28;19914;-83
2022/09/04 05:32:23;;;;;;;;;;;13.40;99.90;;;;;;5020291;28;19924;-83
2022/09/04 05:35:08;;;;;;;;;;;13.50;99.90;;;;;;5011343;28;19913;-84
2022/09/04 05:37:49;;;;;;;;;;;13.50;99.90;;;;;;5028834;28;19993;-84
2022/09/04 05:40:28;;;;;;;;;;;13.50;99.90;;;;;;5012230;28;19952;-84
2022/09/04 05:42:57;;;;;;;;;;;13.50;99.90;;;;;;5028229;28;19976;-84
2022/09/04 05:45:23;;;;;;;;;;;13.40;99.90;;;;;;5027931;28;20587;-84
2022/09/04 05:47:57;;;;;;;;;;;13.40;99.90;;;;;;5028632;28;19917;-84
2022/09/04 05:50:29;;;;;;;;;;;13.30;99.90;;;;;;5028898;28;19980;-84
2022/09/04 05:53:10;;;;;;;;;;;13.30;99.90;;;;;;5023945;28;20014;-84
2022/09/04 05:55:52;;;;;;;;;;;13.30;99.90;;;;;;5023261;28;19924;-84
2022/09/04 05:58:24;;;;;;;;;;;13.30;99.90;;;;;;5038899;28;19920;-84
2022/09/04 06:00:50;;;;;;;;;;;13.40;99.90;;;;;;5025858;28;20343;-83
2022/09/04 06:03:27;;;;;;;;;;;13.40;99.90;;;;;;5028697;28;19914;-83
2022/09/04 06:05:53;;;;;;;;;;;13.40;99.90;;;;;;5031367;28;19974;-84
2022/09/04 06:08:32;;;;;;;;;;;13.30;99.90;;;;;;5012630;28;20389;-83
2022/09/04 06:11:16;;;;;;;;;;;13.40;99.90;;;;;;5039899;28;19913;-83
2022/09/04 06:13:54;;;;;;;;;;;13.40;99.90;;;;;;5031743;28;19917;-83
2022/09/04 06:16:32;;;;;;;;;;;13.40;99.90;;;;;;5038246;28;19913;-83
2022/09/04 06:18:58;;;;;;;;;;;13.50;99.90;;;;;;5012203;28;19914;-84
2022/09/04 06:21:42;;;;;;;;;;;13.50;99.90;;;;;;5008835;28;19924;-84
2022/09/04 06:24:17;;;;;;;;;;;13.40;99.90;;;;;;5038284;28;19914;-83
2022/09/04 06:27:01;;;;;;;;;;;13.50;99.90;;;;;;5021449;28;19935;-83
2022/09/04 06:29:34;;;;;;;;;;;13.60;99.90;;;;;;5027804;28;20308;-84
2022/09/04 06:32:03;;;;;;;;;;;13.70;99.90;;;;;;5008287;28;19919;-85
2022/09/04 06:34:47;;;;;;;;;;;13.80;99.90;;;;;;4992160;28;19922;-84
2022/09/04 06:37:32;;;;;;;;;;;13.80;99.90;;;;;;5017666;28;19971;-84
2022/09/04 06:40:00;;;;;;;;;;;13.80;99.90;;;;;;5004926;28;20079;-83
2022/09/04 06:42:58;;;;;;;;;;;13.70;99.90;;;;;;5013811;28;19924;-86
2022/09/04 06:45:36;;;;;;;;;;;13.70;99.90;;;;;;5016276;28;19968;-84
2022/09/04 06:48:07;;;;;;;;;;;13.80;99.90;;;;;;5028573;28;19920;-86
2022/09/04 06:50:41;;;;;;;;;;;13.80;99.90;;;;;;4995047;28;21767;-85
2022/09/04 06:53:22;;;;;;;;;;;13.90;99.90;;;;;;5034372;28;19920;-85
2022/09/04 06:55:48;;;;;;;;;;;13.90;99.90;;;;;;5024559;28;19920;-84
2022/09/04 06:58:32;;;;;;;;;;;14.00;99.90;;;;;;5015303;28;20276;-84
2022/09/04 07:01:07;;;;;;;;;;;14.00;99.90;;;;;;5012237;28;20557;-86
2022/09/04 07:03:39;;;;;;;;;;;14.20;99.90;;;;;;5027830;28;19999;-86
2022/09/04 07:06:08;;;;;;;;;;;14.20;99.90;;;;;;5011673;28;19913;-85
2022/09/04 07:08:49;;;;;;;;;;;14.30;99.90;;;;;;5033043;28;19923;-84
2022/09/04 07:11:38;;;;;;;;;;;14.30;99.90;;;;;;5028347;28;19978;-84
2022/09/04 07:14:18;;;;;;;;;;;14.40;99.90;;;;;;5007823;28;19922;-84
2022/09/04 07:16:49;;;;;;;;;;;14.50;99.90;;;;;;5022891;28;20324;-83
2022/09/04 07:19:21;;;;;;;;;;;14.60;99.90;;;;;;5027834;28;20034;-87
2022/09/04 07:21:59;;;;;;;;;;;14.70;99.90;;;;;;5010518;28;19913;-86
2022/09/04 07:24:25;;;;;;;;;;;14.80;99.90;;;;;;5000347;28;20374;-84
2022/09/04 07:27:00;;;;;;;;;;;14.90;99.90;;;;;;5015124;28;20366;-85
2022/09/04 07:29:47;;;;;;;;;;;15.00;99.90;;;;;;5012264;28;19924;-87
2022/09/04 07:32:18;;;;;;;;;;;15.10;99.90;;;;;;5040503;28;20397;-86
2022/09/04 07:34:59;;;;;;;;;;;15.20;99.90;;;;;;5000216;28;19995;-85
2022/09/04 07:37:47;;;;;;;;;;;15.20;99.90;;;;;;5009096;28;19921;-85
2022/09/04 07:40:15;;;;;;;;;;;15.40;99.90;;;;;;4997768;28;19943;-85
2022/09/04 07:42:47;;;;;;;;;;;15.40;99.90;;;;;;5023816;28;19948;-83
2022/09/04 07:45:21;;;;;;;;;;;15.30;99.90;;;;;;5015773;28;19921;-84
2022/09/04 07:48:05;;;;;;;;;;;15.30;99.90;;;;;;5035166;28;19913;-85
2022/09/04 07:50:34;;;;;;;;;;;15.50;99.90;;;;;;5007922;28;19921;-84
2022/09/04 07:53:06;;;;;;;;;;;15.50;99.90;;;;;;4999685;28;19917;-85
2022/09/04 07:55:35;;;;;;;;;;;15.50;99.90;;;;;;5016902;28;19924;-87
2022/09/04 07:58:12;;;;;;;;;;;15.50;99.90;;;;;;5024623;28;19916;-87
2022/09/04 08:00:53;;;;;;;;;;;15.60;99.90;;;;;;5012894;28;19913;-86
2022/09/04 08:03:18;;;;;;;;;;;15.70;99.90;;;;;;5013010;28;20040;-85
2022/09/04 08:05:50;;;;;;;;;;;15.80;99.90;;;;;;5017870;28;19944;-85
2022/09/04 08:08:39;;;;;;;;;;;15.90;99.90;;;;;;5034126;28;20304;-86
2022/09/04 08:11:17;;;;;;;;;;;16.20;99.90;;;;;;5043787;28;20339;-85
2022/09/04 08:13:51;;;;;;;;;;;16.20;99.90;;;;;;5028296;28;20035;-85
2022/09/04 08:16:35;;;;;;;;;;;16.20;99.90;;;;;;5014003;28;20373;-85
2022/09/04 08:19:13;;;;;;;;;;;16.20;99.90;;;;;;4997059;28;19949;-85
2022/09/04 08:21:39;;;;;;;;;;;16.30;99.90;;;;;;5039962;28;19956;-85
2022/09/04 08:24:11;;;;;;;;;;;16.40;99.90;;;;;;5025975;28;19914;-84
2022/09/04 08:26:40;;;;;;;;;;;16.30;99.90;;;;;;5045857;28;19913;-86
2022/09/04 08:29:25;;;;;;;;;;;16.30;99.90;;;;;;5030939;28;19913;-85
2022/09/04 08:31:54;;;;;;;;;;;16.30;99.90;;;;;;5013349;28;19913;-86
2022/09/04 08:34:38;;;;;;;;;;;16.40;99.90;;;;;;5029573;28;20393;-87
2022/09/04 08:37:07;;;;;;;;;;;16.50;99.90;;;;;;5030165;28;19971;-86
2022/09/04 08:39:44;;;;;;;;;;;16.50;99.90;;;;;;5034474;28;19936;-85
2022/09/04 08:42:29;;;;;;;;;;;16.70;99.90;;;;;;5019018;28;19960;-85
2022/09/04 08:45:14;;;;;;;;;;;16.80;99.90;;;;;;5045783;28;20000;-86
2022/09/04 08:47:58;;;;;;;;;;;16.90;99.90;;;;;;5015509;28;19975;-87
2022/09/04 08:50:26;;;;;;;;;;;17.00;99.90;;;;;;5029701;28;19952;-86
2022/09/04 08:52:51;;;;;;;;;;;17.10;99.90;;;;;;5027986;28;19970;-86
2022/09/04 08:55:20;;;;;;;;;;;17.20;99.90;;;;;;5028373;28;21409;-87
2022/09/04 08:57:45;;;;;;;;;;;17.40;99.90;;;;;;5033528;28;19913;-86
2022/09/04 09:00:14;;;;;;;;;;;17.70;99.90;;;;;;5013648;28;20519;-87
2022/09/04 09:03:05;;;;;;;;;;;17.80;99.90;;;;;;5019502;28;20005;-87
2022/09/04 09:05:44;;;;;;;;;;;17.90;99.90;;;;;;5013121;28;19936;-86
2022/09/04 09:08:22;;;;;;;;;;;18.00;99.90;;;;;;5029522;28;19913;-87
2022/09/04 09:10:48;;;;;;;;;;;18.00;99.90;;;;;;5020698;28;19920;-88
2022/09/04 09:13:32;;;;;;;;;;;18.10;99.90;;;;;;5027288;28;19917;-87
2022/09/04 09:16:01;;;;;;;;;;;18.10;99.90;;;;;;5017632;28;19920;-87
2022/09/04 09:18:30;;;;;;;;;;;18.20;99.90;;;;;;5034382;28;19920;-86
2022/09/04 09:21:04;;;;;;;;;;;18.20;99.90;;;;;;5022638;28;19917;-85
2022/09/04 09:23:53;;;;;;;;;;;18.20;99.90;;;;;;5032184;28;19920;-87
2022/09/04 09:26:23;;;;;;;;;;;18.20;99.90;;;;;;5032409;28;19913;-86
2022/09/04 09:29:01;;;;;;;;;;;18.30;99.90;;;;;;5006376;28;21821;-85
2022/09/04 09:31:39;;;;;;;;;;;18.40;99.90;;;;;;5018609;28;20063;-86
2022/09/04 09:34:06;;;;;;;;;;;18.40;99.90;;;;;;5010882;28;19917;-87
2022/09/04 09:36:34;;;;;;;;;;;18.50;99.90;;;;;;5015660;28;19928;-86
2022/09/04 09:39:00;;;;;;;;;;;18.50;99.90;;;;;;5020342;28;19916;-87
2022/09/04 09:41:38;;;;;;;;;;;18.60;99.90;;;;;;5052277;28;20099;-87
2022/09/04 09:44:19;;;;;;;;;;;18.60;99.90;;;;;;5014787;28;19913;-86
2022/09/04 09:46:57;;;;;;;;;;;18.60;99.90;;;;;;5012465;28;19917;-86
2022/09/04 09:49:45;;;;;;;;;;;18.70;99.90;;;;;;5032815;28;19928;-87
2022/09/04 09:52:25;;;;;;;;;;;18.70;99.90;;;;;;5028139;28;19920;-87
2022/09/04 09:55:01;;;;;;;;;;;18.70;99.90;;;;;;5028961;28;20286;-88
2022/09/04 09:57:45;;;;;;;;;;;18.80;99.90;;;;;;5028272;28;19917;-87
2022/09/04 10:00:16;;;;;;;;;;;18.90;99.90;;;;;;5048344;28;20444;-88
2022/09/04 10:03:00;;;;;;;;;;;19.00;99.90;;;;;;5028163;28;19965;-85
2022/09/04 10:05:36;;;;;;;;;;;19.10;99.90;;;;;;5040442;28;19968;-86
2022/09/04 10:08:11;;;;;;;;;;;19.10;99.90;;;;;;5026282;28;19917;-86
2022/09/04 10:10:40;;;;;;;;;;;19.20;99.90;;;;;;4997531;28;19913;-85
2022/09/04 10:13:08;;;;;;;;;;;19.30;99.90;;;;;;4997225;28;19940;-85
2022/09/04 10:15:34;;;;;;;;;;;19.40;99.90;;;;;;5020967;28;19923;-86
2022/09/04 10:17:59;;;;;;;;;;;19.60;99.90;;;;;;5028981;28;20004;-86
2022/09/04 10:20:32;;;;;;;;;;;19.80;99.90;;;;;;5026124;28;19921;-86
2022/09/04 10:23:04;;;;;;;;;;;19.80;99.90;;;;;;5000728;28;19913;-86
2022/09/04 10:25:48;;;;;;;;;;;19.90;99.90;;;;;;5012387;28;19920;-85
2022/09/04 10:28:38;;;;;;;;;;;19.90;99.90;;;;;;5006533;28;20012;-85
2022/09/04 10:31:23;;;;;;;;;;;19.90;99.90;;;;;;5033364;28;19921;-86
2022/09/04 10:33:58;;;;;;;;;;;20.00;99.90;;;;;;5027177;28;20018;-85
2022/09/04 10:36:29;;;;;;;;;;;20.10;99.90;;;;;;5031509;28;19949;-85
2022/09/04 10:42:14;;;;;;;;;;;20.30;99.90;;;;;;5050495;28;19917;-85
2022/09/04 10:44:49;;;;;;;;;;;20.40;99.90;;;;;;5020744;28;19917;-86
2022/09/04 10:47:23;;;;;;;;;;;20.40;99.90;;;;;;5033889;28;19936;-86
2022/09/04 10:50:01;;;;;;;;;;;20.50;99.90;;;;;;5035490;28;19912;-87
2022/09/04 10:52:46;;;;;;;;;;;20.60;99.90;;;;;;5049480;28;20553;-85
2022/09/04 10:55:18;;;;;;;;;;;20.50;99.90;;;;;;5027429;28;20445;-85
2022/09/04 10:57:52;;;;;;;;;;;20.40;99.90;;;;;;5025790;28;19918;-86
2022/09/04 11:00:18;;;;;;;;;;;20.50;99.90;;;;;;5028294;28;19913;-85
2022/09/04 11:02:58;;;;;;;;;;;20.40;99.90;;;;;;5045540;28;20008;-87
2022/09/04 11:05:34;;;;;;;;;;;20.40;99.90;;;;;;5045641;28;20336;-85
2022/09/04 11:08:15;;;;;;;;;;;20.40;99.90;;;;;;4998556;28;20278;-86
2022/09/04 11:10:53;;;;;;;;;;;20.40;99.90;;;;;;5021765;28;19960;-86
2022/09/04 11:13:21;;;;;;;;;;;20.50;99.90;;;;;;5027468;28;19924;-86
2022/09/04 11:16:08;;;;;;;;;;;20.50;99.90;;;;;;5043385;28;19924;-86
2022/09/04 11:18:53;;;;;;;;;;;20.50;99.90;;;;;;5018495;28;20112;-87
2022/09/04 11:21:38;;;;;;;;;;;20.50;99.90;;;;;;5034675;28;19952;-86
2022/09/04 11:24:16;;;;;;;;;;;20.60;99.90;;;;;;5028673;28;19937;-86
2022/09/04 11:26:47;;;;;;;;;;;20.70;99.90;;;;;;5026514;28;19917;-85
2022/09/04 11:29:16;;;;;;;;;;;20.80;99.90;;;;;;5030419;28;19917;-86
2022/09/04 11:31:49;;;;;;;;;;;20.80;99.90;;;;;;5016722;28;19959;-85
2022/09/04 11:34:34;;;;;;;;;;;20.90;99.90;;;;;;5026645;28;19924;-86
2022/09/04 11:37:18;;;;;;;;;;;21.00;99.90;;;;;;5017213;28;19917;-85
2022/09/04 11:39:50;;;;;;;;;;;21.10;99.90;;;;;;5035420;28;20020;-87
2022/09/04 11:42:32;;;;;;;;;;;21.20;99.90;;;;;;5030055;28;19913;-86
2022/09/04 11:45:15;;;;;;;;;;;21.10;99.90;;;;;;5016736;28;20688;-86
2022/09/04 11:47:59;;;;;;;;;;;21.10;99.90;;;;;;5026984;28;20436;-86
2022/09/04 11:50:25;;;;;;;;;;;21.00;99.90;;;;;;5029324;28;20370;-86
2022/09/04 11:53:10;;;;;;;;;;;21.00;99.90;;;;;;5043429;28;19956;-87
2022/09/04 11:55:56;;;;;;;;;;;20.90;99.90;;;;;;5028998;28;19935;-85
2022/09/04 11:58:41;;;;;;;;;;;20.90;99.90;;;;;;5015086;28;19964;-86
2022/09/04 12:01:28;;;;;;;;;;;21.00;99.90;;;;;;5021142;28;19925;-86
2022/09/04 12:03:54;;;;;;;;;;;21.10;99.90;;;;;;5029492;28;20439;-85
2022/09/04 12:06:22;;;;;;;;;;;21.20;99.90;;;;;;5026982;28;19917;-86
2022/09/04 12:08:56;;;;;;;;;;;21.30;99.90;;;;;;5012123;28;19928;-84
2022/09/04 12:11:41;;;;;;;;;;;21.40;99.90;;;;;;5031895;28;19920;-84
2022/09/04 12:14:07;;;;;;;;;;;21.50;99.90;;;;;;5026942;28;20016;-84
2022/09/04 12:16:46;;;;;;;;;;;21.70;99.90;;;;;;5034151;28;19909;-85
2022/09/04 12:19:14;;;;;;;;;;;21.70;99.90;;;;;;5031960;28;19956;-85
2022/09/04 12:21:40;;;;;;;;;;;21.90;99.90;;;;;;5024745;28;19960;-84
2022/09/04 12:24:17;;;;;;;;;;;21.90;99.90;;;;;;5015369;28;20384;-84
2022/09/04 12:26:54;;;;;;;;;;;22.00;99.90;;;;;;5026503;28;19920;-84
2022/09/04 12:29:38;;;;;;;;;;;22.10;99.90;;;;;;5021978;28;19975;-84
2022/09/04 12:32:05;;;;;;;;;;;22.30;99.90;;;;;;5036028;28;19913;-85
2022/09/04 12:34:50;;;;;;;;;;;22.30;99.90;;;;;;5030076;28;19932;-85
2022/09/04 12:37:18;;;;;;;;;;;22.40;99.90;;;;;;5014094;28;19982;-85
2022/09/04 12:40:03;;;;;;;;;;;22.50;99.90;;;;;;5022456;28;20612;-84
2022/09/04 12:42:48;;;;;;;;;;;22.60;99.90;;;;;;5028825;28;20360;-87
2022/09/04 12:45:17;;;;;;;;;;;22.60;99.90;;;;;;5024143;28;20016;-85
2022/09/04 12:47:58;;;;;;;;;;;22.60;99.90;;;;;;5016598;28;19913;-84
2022/09/04 12:50:59;;;;;;;;;;;22.60;99.90;;;;;;5010794;28;19921;-86
2022/09/04 12:53:38;;;;;;;;;;;22.80;99.90;;;;;;5005758;28;19975;-86
2022/09/04 12:56:09;;;;;;;;;;;22.70;99.90;;;;;;5007091;28;19916;-87
2022/09/04 12:58:47;;;;;;;;;;;22.80;99.90;;;;;;5012023;28;19917;-84
2022/09/04 13:01:37;;;;;;;;;;;22.80;99.90;;;;;;5024811;28;19924;-86
2022/09/04 13:04:15;;;;;;;;;;;22.80;99.90;;;;;;5011214;28;19987;-84
2022/09/04 13:06:43;;;;;;;;;;;22.80;99.90;;;;;;5019388;28;21086;-83
2022/09/04 13:09:15;;;;;;;;;;;22.80;99.90;;;;;;5037708;28;19913;-86
2022/09/04 13:11:54;;;;;;;;;;;22.90;99.90;;;;;;5026669;28;19913;-86
2022/09/04 13:14:29;;;;;;;;;;;23.00;99.90;;;;;;5025981;28;19960;-86
2022/09/04 13:17:00;;;;;;;;;;;23.10;99.90;;;;;;5026003;28;19967;-86
2022/09/04 13:19:49;;;;;;;;;;;23.10;99.90;;;;;;5028714;28;19912;-84
2022/09/04 13:22:24;;;;;;;;;;;23.10;99.90;;;;;;5008521;28;19924;-84
2022/09/04 13:25:10;;;;;;;;;;;23.30;99.90;;;;;;5013387;28;19917;-85
2022/09/04 13:27:58;;;;;;;;;;;23.40;99.90;;;;;;5011085;28;20551;-87
2022/09/04 13:30:25;;;;;;;;;;;23.40;99.90;;;;;;5025312;28;20047;-84
2022/09/04 13:33:03;;;;;;;;;;;23.40;99.90;;;;;;5028197;28;19924;-84
2022/09/04 13:35:28;;;;;;;;;;;23.50;99.90;;;;;;5013493;28;20059;-83
2022/09/04 13:38:00;;;;;;;;;;;23.60;99.90;;;;;;5029012;28;19996;-85
2022/09/04 13:40:38;;;;;;;;;;;23.60;99.90;;;;;;5012401;28;19920;-84
2022/09/04 13:43:22;;;;;;;;;;;23.60;99.90;;;;;;5028307;28;20309;-85
2022/09/04 13:45:59;;;;;;;;;;;23.60;99.90;;;;;;5008554;28;20417;-84
2022/09/04 13:48:43;;;;;;;;;;;23.50;99.90;;;;;;5035543;28;19913;-85
2022/09/04 13:51:16;;;;;;;;;;;23.50;99.90;;;;;;5048148;28;19913;-83
2022/09/04 13:54:00;;;;;;;;;;;23.40;99.90;;;;;;5037229;28;19926;-85
2022/09/04 13:56:49;;;;;;;;;;;23.40;99.90;;;;;;5025811;28;19979;-86
2022/09/04 13:59:17;;;;;;;;;;;23.30;99.90;;;;;;5023499;28;19913;-85
2022/09/04 14:01:46;;;;;;;;;;;23.30;99.90;;;;;;5013134;28;19917;-86
2022/09/04 14:04:15;;;;;;;;;;;23.30;99.90;;;;;;5045147;28;19921;-84
2022/09/04 14:06:43;;;;;;;;;;;23.20;99.90;;;;;;5020827;28;19959;-83
2022/09/04 14:09:09;;;;;;;;;;;23.10;99.90;;;;;;5009910;28;19947;-85
2022/09/04 14:11:55;;;;;;;;;;;23.10;99.90;;;;;;4990645;28;19953;-87
2022/09/04 14:14:37;;;;;;;;;;;23.10;99.90;;;;;;5012331;28;19924;-84
2022/09/04 14:17:05;;;;;;;;;;;23.20;99.90;;;;;;5009823;28;20285;-84
2022/09/04 14:19:31;;;;;;;;;;;23.30;99.90;;;;;;5003251;28;20400;-85
2022/09/04 14:22:06;;;;;;;;;;;23.30;99.90;;;;;;5009414;28;19917;-85
2022/09/04 14:24:31;;;;;;;;;;;23.30;99.90;;;;;;5023331;28;20015;-84
2022/09/04 14:27:03;;;;;;;;;;;23.30;99.90;;;;;;5017994;28;20084;-85
2022/09/04 14:29:31;;;;;;;;;;;23.30;99.90;;;;;;5026412;28;19913;-86
2022/09/04 14:32:17;;;;;;;;;;;23.30;99.90;;;;;;5010929;28;20668;-84
2022/09/04 14:34:57;;;;;;;;;;;23.20;99.90;;;;;;5009802;28;19917;-85
2022/09/04 14:37:47;;;;;;;;;;;23.20;99.90;;;;;;5016265;28;19921;-87
2022/09/04 14:40:22;;;;;;;;;;;23.10;99.90;;;;;;5038687;28;19913;-87
2022/09/04 14:42:47;;;;;;;;;;;23.10;99.90;;;;;;5025244;28;20278;-85
2022/09/04 14:45:22;;;;;;;;;;;23.00;99.90;;;;;;5019502;28;19933;-84
2022/09/04 14:47:54;;;;;;;;;;;22.90;99.90;;;;;;5028560;28;19920;-86
2022/09/04 14:50:27;;;;;;;;;;;22.90;99.90;;;;;;5036655;28;19912;-85
2022/09/04 14:52:55;;;;;;;;;;;22.80;99.90;;;;;;5031198;28;20035;-86
2022/09/04 14:55:26;;;;;;;;;;;22.90;99.90;;;;;;5006823;28;19913;-86
2022/09/04 14:58:18;;;;;;;;;;;22.90;99.90;;;;;;4989473;28;19952;-86
2022/09/04 15:00:58;;;;;;;;;;;22.90;99.90;;;;;;5007334;28;19925;-84
2022/09/04 15:03:27;;;;;;;;;;;22.90;99.90;;;;;;5026917;28;19970;-85
2022/09/04 15:06:14;;;;;;;;;;;22.90;99.90;;;;;;5041059;28;19920;-86
2022/09/04 15:08:41;;;;;;;;;;;22.90;99.90;;;;;;5041354;28;20414;-85